Check out our new PWSWeather beta!
PWSweather.com
Personal Weather Stations
Station Observations
PEISSEN1
PeissenbergDE

PeissenbergDE

Lat: 47.791845, Lon: 11.064121

Elevation: 1929

Station Type: Davis Vantage Pro 2

wetter-peissenberg.de

High Low Average
Temperature 75.7°F24.3°C 42.1°F5.6°C 58.2°F14.6°C
Dew Point 55.2°F12.9°C 39.6°F4.2°C 48.3°F9.1°C
Winds 4.2 mph 6.8 kmh Calm Calm 1.0 mph SW1.6 kmh SW
Wind Gusts 8.0 mph12.9 kmh -- 2.0 mph3.2 kmh
Humidity 94% 39% 73%
Pressure 29.91 in1012.9 mb 29.67 in1004.7 mb -
Precipitation 0.00 in0.0 mm - -
Hour Temp Dew Point Humidity Winds Wind Gusts Pressure Precip Precip Rate Daily Precip Total
12:00 AM 49.1°F9.5°C 45.7°F7.6°C 88% Calm Calm -- 29.94 in1013.9 mb 0.00 in0.0 mm 0.00 in0.0 mm 0.00 in0.0 mm
12:10 AM 48.9°F9.4°C 45.5°F7.5°C 88% Calm Calm -- 29.93 in1013.5 mb 0.00 in0.0 mm 0.00 in0.0 mm 0.00 in0.0 mm
12:20 AM 48.7°F9.3°C 45.3°F7.4°C 88% Calm Calm -- 29.93 in1013.5 mb 0.00 in0.0 mm 0.00 in0.0 mm 0.00 in0.0 mm
02:00 AM 46.2°F7.9°C 43.5°F6.4°C 90% Calm Calm -- 29.91 in1012.9 mb 0.00 in0.0 mm 0.00 in0.0 mm 0.00 in0.0 mm
02:10 AM 46.0°F7.8°C 43.3°F6.3°C 90% Calm Calm -- 29.91 in1012.9 mb 0.00 in0.0 mm 0.00 in0.0 mm 0.00 in0.0 mm
02:20 AM 45.9°F7.7°C 43.1°F6.2°C 90% Calm Calm -- 29.91 in1012.9 mb 0.00 in0.0 mm 0.00 in0.0 mm 0.00 in0.0 mm
04:00 AM 44.1°F6.7°C 41.6°F5.3°C 91% Calm Calm -- 29.88 in1011.9 mb 0.00 in0.0 mm 0.00 in0.0 mm 0.00 in0.0 mm
04:10 AM 43.9°F6.6°C 41.4°F5.2°C 91% Calm Calm -- 29.87 in1011.5 mb 0.00 in0.0 mm 0.00 in0.0 mm 0.00 in0.0 mm
04:20 AM 43.7°F6.5°C 41.3°F5.2°C 91% Calm Calm -- 29.87 in1011.5 mb 0.00 in0.0 mm 0.00 in0.0 mm 0.00 in0.0 mm
06:00 AM 42.3°F5.7°C 39.8°F4.3°C 91% Calm Calm -- 29.85 in1010.8 mb 0.00 in0.0 mm 0.00 in0.0 mm 0.00 in0.0 mm
06:10 AM 42.3°F5.7°C 39.8°F4.3°C 91% Calm Calm -- 29.85 in1010.8 mb 0.00 in0.0 mm 0.00 in0.0 mm 0.00 in0.0 mm
06:20 AM 42.1°F5.6°C 39.6°F4.2°C 91% Calm Calm -- 29.85 in1010.8 mb 0.00 in0.0 mm 0.00 in0.0 mm 0.00 in0.0 mm
08:00 AM 44.4°F6.9°C 42.8°F6.0°C 94% Calm Calm -- 29.83 in1010.2 mb 0.00 in0.0 mm 0.00 in0.0 mm 0.00 in0.0 mm
08:10 AM 45.3°F7.4°C 43.7°F6.5°C 94% Calm Calm -- 29.83 in1010.2 mb 0.00 in0.0 mm 0.00 in0.0 mm 0.00 in0.0 mm
08:20 AM 45.9°F7.7°C 44.2°F6.8°C 94% Calm Calm -- 29.83 in1010.2 mb 0.00 in0.0 mm 0.00 in0.0 mm 0.00 in0.0 mm
10:00 AM 55.9°F13.3°C 54.2°F12.3°C 94% Calm Calm -- 29.80 in1009.1 mb 0.00 in0.0 mm 0.00 in0.0 mm 0.00 in0.0 mm
10:10 AM 57.4°F14.1°C 54.8°F12.7°C 91% Calm Calm -- 29.80 in1009.1 mb 0.00 in0.0 mm 0.00 in0.0 mm 0.00 in0.0 mm
10:20 AM 58.5°F14.7°C 55.2°F12.9°C 89% Calm Calm -- 29.80 in1009.1 mb 0.00 in0.0 mm 0.00 in0.0 mm 0.00 in0.0 mm
12:00 PM 71.2°F21.8°C 50.5°F10.3°C 48% Calm Calm -- 29.77 in1008.1 mb 0.00 in0.0 mm 0.00 in0.0 mm 0.00 in0.0 mm
12:10 PM 72.1°F22.3°C 51.4°F10.8°C 48% 4.2 mph WSW6.8 kmh WSW 7.0 mph11.3 kmh 29.77 in1008.1 mb 0.00 in0.0 mm 0.00 in0.0 mm 0.00 in0.0 mm
12:20 PM 72.9°F22.7°C 49.0°F9.4°C 43% 3.5 mph WNW5.6 kmh WNW 8.0 mph12.9 kmh 29.76 in1007.8 mb 0.00 in0.0 mm 0.00 in0.0 mm 0.00 in0.0 mm
02:00 PM 75.7°F24.3°C 49.0°F9.4°C 39% 2.0 mph WNW3.2 kmh WNW 4.0 mph6.4 kmh 29.73 in1006.8 mb 0.00 in0.0 mm 0.00 in0.0 mm 0.00 in0.0 mm
02:10 PM 74.7°F23.7°C 48.7°F9.3°C 40% 3.2 mph WSW5.1 kmh WSW 6.0 mph9.7 kmh 29.73 in1006.8 mb 0.00 in0.0 mm 0.00 in0.0 mm 0.00 in0.0 mm
02:20 PM 74.1°F23.4°C 48.2°F9.0°C 40% 1.4 mph SSW2.3 kmh SSW 3.0 mph4.8 kmh 29.72 in1006.4 mb 0.00 in0.0 mm 0.00 in0.0 mm 0.00 in0.0 mm
04:00 PM 74.1°F23.4°C 50.2°F10.1°C 43% 0.8 mph W1.3 kmh W 2.0 mph3.2 kmh 29.69 in1005.4 mb 0.00 in0.0 mm 0.00 in0.0 mm 0.00 in0.0 mm
04:10 PM 73.8°F23.2°C 49.9°F9.9°C 43% 1.1 mph W1.8 kmh W 2.0 mph3.2 kmh 29.69 in1005.4 mb 0.00 in0.0 mm 0.00 in0.0 mm 0.00 in0.0 mm
04:20 PM 73.6°F23.1°C 49.7°F9.8°C 43% 3.1 mph W5.0 kmh W 4.0 mph6.4 kmh 29.69 in1005.4 mb 0.00 in0.0 mm 0.00 in0.0 mm 0.00 in0.0 mm
06:00 PM 63.9°F17.7°C 53.5°F11.9°C 69% Calm Calm -- 29.67 in1004.7 mb 0.00 in0.0 mm 0.00 in0.0 mm 0.00 in0.0 mm
06:10 PM 63.3°F17.4°C 53.4°F11.9°C 70% Calm Calm -- 29.68 in1005.1 mb 0.00 in0.0 mm 0.00 in0.0 mm 0.00 in0.0 mm
06:20 PM 63.0°F17.2°C 53.4°F11.9°C 71% Calm Calm -- 29.67 in1004.7 mb 0.00 in0.0 mm 0.00 in0.0 mm 0.00 in0.0 mm
08:00 PM 60.3°F15.7°C 52.7°F11.5°C 76% 2.0 mph W3.2 kmh W 4.0 mph6.4 kmh 29.70 in1005.8 mb 0.00 in0.0 mm 0.00 in0.0 mm 0.00 in0.0 mm
08:10 PM 60.4°F15.8°C 52.5°F11.4°C 75% 3.5 mph WSW5.6 kmh WSW 6.0 mph9.7 kmh 29.70 in1005.8 mb 0.00 in0.0 mm 0.00 in0.0 mm 0.00 in0.0 mm
08:20 PM 61.0°F16.1°C 52.6°F11.4°C 74% 3.1 mph WSW5.0 kmh WSW 7.0 mph11.3 kmh 29.70 in1005.8 mb 0.00 in0.0 mm 0.00 in0.0 mm 0.00 in0.0 mm
10:00 PM 61.0°F16.1°C 53.0°F11.7°C 75% 3.3 mph WSW5.3 kmh WSW 8.0 mph12.9 kmh 29.70 in1005.8 mb 0.00 in0.0 mm 0.00 in0.0 mm 0.00 in0.0 mm
10:10 PM 61.3°F16.3°C 53.3°F11.8°C 75% 1.1 mph N1.8 kmh N 2.0 mph3.2 kmh 29.70 in1005.8 mb 0.00 in0.0 mm 0.00 in0.0 mm 0.00 in0.0 mm
10:20 PM 61.7°F16.5°C 53.3°F11.8°C 74% 3.7 mph WSW6.0 kmh WSW 6.0 mph9.7 kmh 29.70 in1005.8 mb 0.00 in0.0 mm 0.00 in0.0 mm 0.00 in0.0 mm